createdAt,value
2022-11-10T00:00:25.356Z,9.30
2022-11-10T00:03:13.125Z,4.33
2022-11-10T00:06:02.755Z,5.63
2022-11-10T00:08:50.361Z,8.10
2022-11-10T00:11:38.011Z,8.10
2022-11-10T00:14:42.889Z,5.50
2022-11-10T00:17:32.159Z,6.13
2022-11-10T00:20:19.924Z,8.30
2022-11-10T00:23:07.851Z,7.87
2022-11-10T00:25:55.403Z,5.87
2022-11-10T00:28:43.248Z,6.27
2022-11-10T00:31:30.705Z,11.40
2022-11-10T00:34:19.660Z,3.37
2022-11-10T00:37:07.505Z,7.63
2022-11-10T00:39:54.886Z,7.90
2022-11-10T00:42:42.760Z,9.80
2022-11-10T00:45:30.663Z,6.30
2022-11-10T00:48:18.115Z,8.40
2022-11-10T00:51:07.145Z,7.50
2022-11-10T00:53:54.940Z,8.00
2022-11-10T00:56:42.708Z,7.80
2022-11-10T00:59:30.495Z,6.60
2022-11-10T01:02:18.152Z,9.00
2022-11-10T01:05:06.054Z,8.10
2022-11-10T01:07:55.176Z,6.17
2022-11-10T01:10:42.980Z,8.77
2022-11-10T01:13:30.789Z,6.60
2022-11-10T01:16:20.776Z,7.00
2022-11-10T01:19:09.451Z,8.13
2022-11-10T01:21:58.024Z,9.73
2022-11-10T01:24:46.917Z,7.00
2022-11-10T01:27:34.521Z,9.17
2022-11-10T01:30:22.145Z,6.30
2022-11-10T01:33:09.754Z,10.17
2022-11-10T01:35:57.562Z,9.63
2022-11-10T01:38:45.762Z,7.73
2022-11-10T01:41:34.725Z,6.20
2022-11-10T01:44:24.237Z,7.87
2022-11-10T01:47:12.142Z,4.60
2022-11-10T01:49:59.711Z,6.07
2022-11-10T01:52:51.275Z,8.07
2022-11-10T01:55:42.132Z,7.60
2022-11-10T01:58:39.879Z,6.60
2022-11-10T02:01:27.828Z,6.87
2022-11-10T02:04:18.022Z,7.40
2022-11-10T02:07:06.969Z,9.03
2022-11-10T02:09:55.033Z,7.97
2022-11-10T02:12:42.751Z,5.30
2022-11-10T02:15:31.879Z,6.57
2022-11-10T02:18:19.673Z,11.00
2022-11-10T02:21:09.282Z,13.03
2022-11-10T02:23:57.168Z,7.10
2022-11-10T02:26:49.544Z,10.53
2022-11-10T02:29:37.075Z,8.53
2022-11-10T02:32:24.757Z,7.43
2022-11-10T02:35:12.698Z,10.50
2022-11-10T02:38:01.614Z,13.87
2022-11-10T02:40:50.834Z,5.43
2022-11-10T02:43:39.445Z,6.53
2022-11-10T02:46:27.321Z,10.60
2022-11-10T02:49:14.854Z,8.93
2022-11-10T02:52:02.538Z,9.90
2022-11-10T02:54:51.354Z,10.40
2022-11-10T02:57:39.465Z,4.10
2022-11-10T03:00:27.722Z,5.07
2022-11-10T03:03:15.611Z,4.90
2022-11-10T03:06:03.312Z,10.53
2022-11-10T03:08:50.927Z,6.07
2022-11-10T03:11:39.822Z,4.63
2022-11-10T03:14:27.631Z,7.00
2022-11-10T03:17:15.323Z,6.40
2022-11-10T03:20:03.015Z,17.80
2022-11-10T03:22:50.862Z,6.53
2022-11-10T03:25:38.649Z,14.23
2022-11-10T03:28:27.796Z,10.70
2022-11-10T03:31:15.422Z,9.37
2022-11-10T03:34:02.958Z,15.93
2022-11-10T03:36:50.706Z,7.07
2022-11-10T03:39:38.172Z,12.47
2022-11-10T03:42:25.723Z,12.37
2022-11-10T03:45:16.788Z,7.60
2022-11-10T03:48:04.539Z,12.60
2022-11-10T03:50:52.329Z,7.40
2022-11-10T03:53:39.859Z,9.83
2022-11-10T03:56:27.680Z,8.97
2022-11-10T03:59:15.387Z,13.00
2022-11-10T04:02:04.524Z,10.90
2022-11-10T04:05:09.558Z,9.27
2022-11-10T04:08:19.229Z,9.37
2022-11-10T04:11:07.062Z,15.60
2022-11-10T04:14:12.068Z,12.63
2022-11-10T04:17:00.177Z,10.20
2022-11-10T04:19:49.525Z,12.17
2022-11-10T04:22:54.531Z,8.37
2022-11-10T04:26:05.302Z,14.77
2022-11-10T04:28:55.436Z,17.23
2022-11-10T04:31:43.695Z,20.07
2022-11-10T04:34:31.080Z,20.97
2022-11-10T04:37:19.973Z,15.90
2022-11-10T04:40:09.052Z,9.83
2022-11-10T04:42:56.883Z,20.80
2022-11-10T04:45:44.981Z,23.57
2022-11-10T04:48:33.602Z,17.83
2022-11-10T04:51:22.479Z,22.13
2022-11-10T04:54:13.128Z,16.27
2022-11-10T04:57:00.747Z,20.80
2022-11-10T04:59:48.293Z,19.10
2022-11-10T05:02:39.622Z,19.00
2022-11-10T05:05:27.965Z,17.83
2022-11-10T05:08:16.326Z,16.13
2022-11-10T05:11:05.772Z,20.03
2022-11-10T05:13:53.295Z,26.77
2022-11-10T05:16:40.713Z,16.47
2022-11-10T05:19:28.341Z,20.30
2022-11-10T05:22:16.011Z,25.63
2022-11-10T05:25:03.823Z,17.03
2022-11-10T05:27:52.752Z,21.03
2022-11-10T05:30:41.239Z,20.57
2022-11-10T05:33:28.868Z,25.47
2022-11-10T05:36:16.345Z,16.67
2022-11-10T05:39:03.766Z,25.67
2022-11-10T05:41:51.255Z,20.47
2022-11-10T05:44:40.120Z,30.93
2022-11-10T05:47:27.838Z,29.83
2022-11-10T05:50:15.746Z,23.37
2022-11-10T05:53:03.705Z,18.37
2022-11-10T05:55:51.316Z,22.73
2022-11-10T05:58:38.772Z,25.07
2022-11-10T06:01:27.861Z,22.00
2022-11-10T06:04:15.571Z,21.63
2022-11-10T06:07:03.448Z,24.70
2022-11-10T06:09:50.834Z,29.33
2022-11-10T06:12:38.399Z,28.03
2022-11-10T06:15:26.858Z,19.37
2022-11-10T06:18:16.038Z,25.53
2022-11-10T06:21:03.776Z,31.13
2022-11-10T06:23:51.269Z,18.60
2022-11-10T06:26:39.002Z,22.47
2022-11-10T06:29:27.185Z,26.20
2022-11-10T06:32:14.786Z,28.80
2022-11-10T06:35:03.773Z,25.30
2022-11-10T06:37:59.545Z,22.17
2022-11-10T06:40:47.231Z,24.70
2022-11-10T06:43:34.885Z,21.40
2022-11-10T06:46:22.574Z,18.53
2022-11-10T06:49:10.033Z,22.57
2022-11-10T06:51:58.959Z,20.63
2022-11-10T06:54:46.949Z,22.60
2022-11-10T06:57:39.898Z,23.03
2022-11-10T07:00:28.813Z,23.80
2022-11-10T07:03:17.380Z,22.27
2022-11-10T07:06:05.522Z,14.07
2022-11-10T07:08:54.449Z,17.97
2022-11-10T07:11:43.207Z,19.03
2022-11-10T07:14:31.102Z,16.07
2022-11-10T07:17:18.455Z,17.67
2022-11-10T07:20:06.616Z,21.77
2022-11-10T07:23:00.227Z,20.03
2022-11-10T07:25:49.474Z,21.83
2022-11-10T07:28:37.300Z,17.30
2022-11-10T07:31:24.808Z,18.40
2022-11-10T07:34:12.374Z,17.60
2022-11-10T07:37:00.097Z,19.10
2022-11-10T07:39:47.765Z,23.53
2022-11-10T07:42:41.104Z,25.03
2022-11-10T07:45:29.353Z,27.03
2022-11-10T07:48:17.597Z,20.60
2022-11-10T07:51:05.244Z,14.50
2022-11-10T07:53:53.083Z,14.47
2022-11-10T07:56:41.152Z,19.23
2022-11-10T07:59:29.893Z,17.57
2022-11-10T08:02:17.431Z,17.77
2022-11-10T08:05:05.247Z,25.60
2022-11-10T08:07:54.846Z,21.20
2022-11-10T08:10:43.202Z,23.87
2022-11-10T08:13:30.637Z,21.10
2022-11-10T08:16:19.748Z,19.40
2022-11-10T08:19:07.255Z,28.47
2022-11-10T08:21:54.907Z,18.20
2022-11-10T08:24:42.495Z,20.20
2022-11-10T08:27:30.427Z,19.93
2022-11-10T08:30:18.575Z,20.93
2022-11-10T08:33:09.382Z,22.17
2022-11-10T08:35:56.890Z,28.40
2022-11-10T08:38:44.314Z,21.73
2022-11-10T08:41:31.953Z,21.70
2022-11-10T08:44:21.042Z,24.33
2022-11-10T08:47:08.934Z,25.23
2022-11-10T08:49:57.925Z,21.50
2022-11-10T08:52:45.813Z,14.93
2022-11-10T08:55:33.749Z,33.30
2022-11-10T08:58:22.728Z,21.90
2022-11-10T09:01:11.512Z,17.13
2022-11-10T09:03:59.335Z,34.90
2022-11-10T09:06:48.312Z,19.73
2022-11-10T09:09:36.128Z,27.43
2022-11-10T09:12:23.844Z,26.10
2022-11-10T09:15:12.613Z,24.60
2022-11-10T09:18:00.738Z,23.00
2022-11-10T09:20:48.301Z,21.52
2022-11-10T09:23:37.139Z,20.93
2022-11-10T09:26:24.831Z,25.77
2022-11-10T09:29:12.360Z,26.88
2022-11-10T09:32:00.298Z,20.93
2022-11-10T09:34:52.763Z,21.83
2022-11-10T09:37:41.141Z,23.70
2022-11-10T09:40:44.454Z,24.23
2022-11-10T09:43:39.507Z,18.83
2022-11-10T09:46:30.410Z,26.43
2022-11-10T09:49:29.133Z,25.63
2022-11-10T09:52:18.970Z,21.67
2022-11-10T09:55:18.102Z,18.23
2022-11-10T09:58:09.368Z,25.90
2022-11-10T10:01:05.138Z,16.73
2022-11-10T10:04:01.642Z,14.55
2022-11-10T10:07:10.566Z,16.05
2022-11-10T10:10:05.475Z,16.07
2022-11-10T10:13:12.452Z,18.60
2022-11-10T10:16:15.223Z,15.83
2022-11-10T10:19:14.919Z,23.92
2022-11-10T10:22:34.191Z,12.82
2022-11-10T10:25:24.233Z,16.90
2022-11-10T10:28:21.625Z,31.37
2022-11-10T10:31:19.083Z,17.17
2022-11-10T10:34:13.292Z,18.83
2022-11-10T10:37:00.777Z,16.90
2022-11-10T10:39:51.849Z,16.98
2022-11-10T10:42:39.893Z,17.70
2022-11-10T10:45:30.955Z,20.67
2022-11-10T10:48:30.356Z,14.75
2022-11-10T10:51:30.845Z,13.63
2022-11-10T10:54:29.833Z,13.70
2022-11-10T10:57:23.466Z,22.35
2022-11-10T11:00:22.012Z,12.80
2022-11-10T11:03:22.931Z,17.50
2022-11-10T11:06:21.578Z,16.48
2022-11-10T11:09:16.637Z,10.52
2022-11-10T11:12:07.284Z,16.23
2022-11-10T11:15:14.250Z,15.43
2022-11-10T11:18:03.602Z,18.25
2022-11-10T11:21:00.997Z,18.15
2022-11-10T11:24:06.835Z,8.80
2022-11-10T11:27:01.585Z,14.02
2022-11-10T11:30:09.904Z,14.35
2022-11-10T11:33:17.118Z,18.85
2022-11-10T11:36:17.382Z,15.27
2022-11-10T11:39:17.417Z,12.95
2022-11-10T11:42:16.422Z,22.55
2022-11-10T11:45:17.891Z,16.52
2022-11-10T11:48:44.865Z,14.82
2022-11-10T11:51:41.310Z,19.15
2022-11-10T11:54:33.714Z,16.10
2022-11-10T11:57:38.688Z,20.15
2022-11-10T12:00:31.236Z,22.02
2022-11-10T12:03:39.926Z,19.20
2022-11-10T12:06:42.661Z,17.58
2022-11-10T12:09:41.029Z,16.75
2022-11-10T12:12:58.847Z,13.57
2022-11-10T12:15:54.284Z,16.80
2022-11-10T12:18:51.016Z,16.92
2022-11-10T12:21:48.333Z,14.38
2022-11-10T12:24:53.023Z,15.02
2022-11-10T12:27:46.167Z,7.13
2022-11-10T12:30:35.560Z,15.73
2022-11-10T12:33:34.769Z,10.70
2022-11-10T12:36:23.550Z,15.00
2022-11-10T12:39:18.641Z,14.75
2022-11-10T12:42:09.158Z,14.50
2022-11-10T12:45:01.182Z,14.98
2022-11-10T12:47:49.729Z,17.13
2022-11-10T12:50:45.946Z,10.05
2022-11-10T12:53:36.573Z,15.32
2022-11-10T12:56:31.197Z,15.23
2022-11-10T12:59:34.389Z,12.13
2022-11-10T13:02:31.109Z,12.35
2022-11-10T13:05:37.474Z,13.93
2022-11-10T13:08:34.592Z,14.32
2022-11-10T13:11:31.102Z,18.17
2022-11-10T13:14:25.811Z,13.07
2022-11-10T13:17:52.818Z,10.30
2022-11-10T13:20:52.364Z,15.50
2022-11-10T13:24:19.965Z,16.42
2022-11-10T13:27:13.398Z,13.48
2022-11-10T13:30:01.602Z,19.23
2022-11-10T13:32:49.599Z,12.48
2022-11-10T13:35:55.539Z,16.33
2022-11-10T13:38:45.837Z,10.80
2022-11-10T13:41:35.640Z,11.02
2022-11-10T13:44:27.912Z,16.80
2022-11-10T13:47:48.361Z,12.45
2022-11-10T13:50:49.980Z,11.43
2022-11-10T13:53:45.833Z,18.40
2022-11-10T13:56:52.207Z,12.15
2022-11-10T13:59:50.432Z,13.73
2022-11-10T14:02:49.971Z,11.48
2022-11-10T14:06:07.287Z,14.43
2022-11-10T14:08:59.948Z,9.53
2022-11-10T14:11:51.164Z,8.88
2022-11-10T14:14:52.373Z,19.35
2022-11-10T14:17:45.337Z,11.63
2022-11-10T14:20:45.018Z,8.73
2022-11-10T14:23:37.910Z,18.17
2022-11-10T14:26:31.374Z,8.80
2022-11-10T14:29:38.452Z,11.52
2022-11-10T14:32:27.977Z,10.02
2022-11-10T14:35:22.635Z,15.13
2022-11-10T14:38:21.117Z,8.70
2022-11-10T14:41:18.534Z,12.65
2022-11-10T14:44:08.848Z,16.13
2022-11-10T14:46:57.288Z,11.90
2022-11-10T14:49:46.593Z,14.57
2022-11-10T14:52:38.631Z,7.00
2022-11-10T14:55:30.291Z,8.23
2022-11-10T14:58:24.440Z,14.07
2022-11-10T15:01:26.444Z,9.52
2022-11-10T15:04:16.468Z,7.65
2022-11-10T15:07:07.009Z,10.52
2022-11-10T15:10:14.318Z,10.85
2022-11-10T15:13:04.922Z,14.43
2022-11-10T15:15:53.550Z,12.68
2022-11-10T15:18:41.417Z,10.95
2022-11-10T15:21:34.039Z,11.18
2022-11-10T15:24:25.923Z,10.45
2022-11-10T15:27:23.050Z,12.85
2022-11-10T15:30:24.420Z,19.05
2022-11-10T15:33:12.542Z,12.65
2022-11-10T15:36:17.024Z,11.10
2022-11-10T15:39:20.000Z,4.20
2022-11-10T15:42:16.096Z,9.63
2022-11-10T15:45:03.877Z,9.95
2022-11-10T15:47:51.555Z,11.07
2022-11-10T15:50:39.576Z,11.55
2022-11-10T15:53:31.033Z,16.17
2022-11-10T15:56:21.822Z,9.98
2022-11-10T15:59:12.737Z,12.38
2022-11-10T16:02:00.996Z,11.32
2022-11-10T16:04:52.423Z,12.43
2022-11-10T16:07:42.197Z,18.73
2022-11-10T16:10:30.439Z,9.93
2022-11-10T16:13:22.191Z,10.05
2022-11-10T16:16:14.677Z,9.38
2022-11-10T16:19:02.600Z,13.23
2022-11-10T16:21:50.110Z,13.35
2022-11-10T16:24:37.932Z,5.90
2022-11-10T16:27:25.754Z,8.10
2022-11-10T16:30:15.777Z,8.40
2022-11-10T16:33:04.758Z,6.53
2022-11-10T16:35:54.030Z,11.23
2022-11-10T16:38:41.603Z,6.47
2022-11-10T16:41:29.412Z,10.95
2022-11-10T16:44:22.735Z,6.60
2022-11-10T16:47:18.906Z,11.98
2022-11-10T16:50:24.874Z,10.13
2022-11-10T16:53:17.177Z,16.70
2022-11-10T16:56:05.122Z,9.57
2022-11-10T16:58:54.498Z,6.25
2022-11-10T17:01:45.396Z,13.48
2022-11-10T17:04:33.001Z,8.40
2022-11-10T17:07:24.500Z,7.40
2022-11-10T17:10:15.813Z,13.55
2022-11-10T17:13:03.850Z,9.00
2022-11-10T17:15:53.562Z,10.48
2022-11-10T17:18:41.661Z,11.40
2022-11-10T17:21:33.243Z,13.05
2022-11-10T17:24:23.011Z,9.55
2022-11-10T17:27:11.949Z,7.78
2022-11-10T17:29:59.674Z,11.68
2022-11-10T17:33:06.116Z,12.93
2022-11-10T17:35:54.706Z,10.20
2022-11-10T17:38:42.628Z,5.82
2022-11-10T17:41:31.887Z,10.68
2022-11-10T17:44:20.782Z,13.43
2022-11-10T17:47:08.485Z,11.13
2022-11-10T17:49:55.911Z,11.20
2022-11-10T17:52:43.986Z,10.10
2022-11-10T17:55:34.443Z,12.35
2022-11-10T17:58:24.237Z,10.15
2022-11-10T18:01:21.992Z,9.80
2022-11-10T18:04:12.857Z,9.27
2022-11-10T18:07:00.633Z,8.75
2022-11-10T18:09:49.034Z,9.48
2022-11-10T18:12:36.786Z,17.63
2022-11-10T18:15:25.963Z,16.60
2022-11-10T18:18:14.698Z,8.55
2022-11-10T18:21:02.504Z,11.15
2022-11-10T18:23:49.982Z,17.95
2022-11-10T18:26:37.737Z,6.97
2022-11-10T18:29:25.183Z,6.88
2022-11-10T18:32:14.244Z,8.90
2022-11-10T18:35:01.828Z,9.45
2022-11-10T18:37:49.500Z,9.00
2022-11-10T18:40:36.864Z,9.02
2022-11-10T18:43:24.604Z,8.07
2022-11-10T18:46:12.584Z,10.80
2022-11-10T18:49:01.835Z,12.17
2022-11-10T18:51:49.419Z,12.65
2022-11-10T18:54:37.102Z,11.27
2022-11-10T18:57:24.671Z,3.67
2022-11-10T19:00:13.992Z,9.32
2022-11-10T19:03:01.419Z,9.30
2022-11-10T19:05:58.215Z,7.28
2022-11-10T19:08:46.904Z,6.03
2022-11-10T19:11:35.601Z,4.55
2022-11-10T19:14:23.442Z,10.88
2022-11-10T19:17:11.660Z,10.50
2022-11-10T19:19:59.375Z,10.60
2022-11-10T19:22:48.247Z,7.78
2022-11-10T19:25:35.858Z,12.50
2022-11-10T19:28:23.657Z,6.05
2022-11-10T19:31:14.143Z,12.93
2022-11-10T19:34:01.825Z,5.53
2022-11-10T19:36:49.813Z,11.95
2022-11-10T19:39:38.804Z,7.47
2022-11-10T19:42:26.612Z,7.57
2022-11-10T19:45:15.424Z,9.70
2022-11-10T19:48:02.904Z,13.32
2022-11-10T19:50:55.293Z,11.68
2022-11-10T19:53:43.841Z,7.95
2022-11-10T19:56:35.529Z,8.88
2022-11-10T19:59:23.071Z,7.18
2022-11-10T20:02:13.344Z,13.77
2022-11-10T20:05:17.282Z,9.13
2022-11-10T20:08:12.379Z,4.30
2022-11-10T20:11:04.919Z,10.57
2022-11-10T20:13:56.203Z,6.95
2022-11-10T20:16:44.032Z,6.47
2022-11-10T20:19:32.939Z,5.97
2022-11-10T20:22:22.154Z,9.77
2022-11-10T20:25:10.153Z,11.43
2022-11-10T20:27:58.655Z,10.50
2022-11-10T20:30:47.733Z,9.05
2022-11-10T20:33:36.161Z,10.02
2022-11-10T20:36:26.841Z,6.82
2022-11-10T20:39:14.601Z,6.05
2022-11-10T20:42:02.054Z,7.03
2022-11-10T20:44:49.611Z,4.63
2022-11-10T20:47:38.812Z,7.55
2022-11-10T20:50:26.523Z,2.42
2022-11-10T20:53:14.473Z,4.00
2022-11-10T20:56:02.645Z,3.30
2022-11-10T20:58:52.242Z,5.55
2022-11-10T21:01:40.187Z,5.50
2022-11-10T21:04:29.432Z,5.88
2022-11-10T21:07:17.235Z,6.50
2022-11-10T21:10:05.471Z,12.10
2022-11-10T21:12:53.233Z,4.13
2022-11-10T21:15:41.541Z,7.10
2022-11-10T21:18:30.752Z,7.85
2022-11-10T21:21:26.295Z,5.18
2022-11-10T21:24:13.964Z,10.75
2022-11-10T21:27:01.612Z,6.18
2022-11-10T21:29:49.137Z,10.23
2022-11-10T21:32:36.730Z,5.00
2022-11-10T21:35:24.368Z,9.85
2022-11-10T21:38:15.069Z,8.00
2022-11-10T21:41:02.596Z,8.73
2022-11-10T21:43:50.148Z,4.97
2022-11-10T21:46:37.660Z,11.32
2022-11-10T21:49:25.127Z,5.97
2022-11-10T21:52:12.540Z,4.85
2022-11-10T21:55:01.545Z,6.07
2022-11-10T21:57:49.506Z,8.75
2022-11-10T22:00:36.953Z,7.32
2022-11-10T22:03:25.110Z,8.90
2022-11-10T22:06:14.891Z,4.65
2022-11-10T22:09:02.774Z,7.18
2022-11-10T22:12:08.938Z,9.57
2022-11-10T22:15:14.096Z,7.63
2022-11-10T22:18:19.858Z,6.65
2022-11-10T22:21:09.389Z,9.07
2022-11-10T22:24:14.668Z,13.77
2022-11-10T22:27:05.096Z,5.33
2022-11-10T22:29:52.914Z,5.18
2022-11-10T22:32:42.462Z,6.40
2022-11-10T22:35:44.895Z,7.93
2022-11-10T22:38:34.919Z,5.80
2022-11-10T22:41:39.784Z,8.57
2022-11-10T22:44:29.021Z,7.80
2022-11-10T22:47:16.678Z,10.77
2022-11-10T22:50:04.359Z,3.55
2022-11-10T22:52:52.179Z,6.95
2022-11-10T22:55:39.808Z,6.25
2022-11-10T22:58:27.488Z,8.77
2022-11-10T23:01:16.440Z,8.60
2022-11-10T23:04:04.763Z,12.13
2022-11-10T23:06:52.666Z,6.93
2022-11-10T23:09:40.271Z,7.97
2022-11-10T23:12:27.650Z,11.23
2022-11-10T23:15:15.260Z,6.07
2022-11-10T23:18:06.833Z,5.07
2022-11-10T23:20:59.251Z,8.57
2022-11-10T23:23:48.206Z,8.63
2022-11-10T23:26:35.869Z,8.17
2022-11-10T23:29:23.375Z,10.75
2022-11-10T23:32:10.832Z,7.13
2022-11-10T23:34:59.692Z,6.63
2022-11-10T23:37:47.299Z,7.93
2022-11-10T23:40:34.820Z,5.60
2022-11-10T23:43:22.752Z,7.07
2022-11-10T23:46:10.683Z,7.60
2022-11-10T23:48:58.446Z,3.17
2022-11-10T23:51:47.422Z,12.70
2022-11-10T23:54:35.311Z,13.63
2022-11-10T23:57:22.762Z,5.17
